< < Back
Terminal Aerodrome Forecast


Current Version              Previous Versions:   1  2  3  4  5  6  7  8  9  

Terminal Aerodrome Forecast

348
FTUS42 KTAE 270520
TAFVLD
TAF
KVLD 270520Z 2706/2806 00000KT P6SM SCT250
     FM271500 21004KT P6SM FEW050 SCT250=

Latest METAR

323
SAUS70 KWBC 271456
MTRVLD
METAR KVLD 271453Z AUTO VRB05KT 10SM CLR 31/23 A3010 RMK AO2 SLP198
T03060228 50004


USA.gov is the U.S. government's official web portal to all federal, state and local government web resources and services.